createdAt,value
2023-03-26T00:02:02.032Z,10.53
2023-03-26T00:07:05.361Z,10.48
2023-03-26T00:12:07.947Z,10.49
2023-03-26T00:17:10.403Z,10.41
2023-03-26T00:22:13.851Z,10.30
2023-03-26T00:27:16.372Z,10.20
2023-03-26T00:32:18.953Z,10.17
2023-03-26T00:37:28.482Z,10.11
2023-03-26T00:42:32.190Z,10.05
2023-03-26T00:47:36.333Z,10.03
2023-03-26T00:52:39.383Z,9.97
2023-03-26T00:57:41.963Z,9.99
2023-03-26T01:02:45.393Z,9.97
2023-03-26T01:07:48.289Z,9.90
2023-03-26T01:12:50.754Z,9.80
2023-03-26T01:17:58.076Z,9.85
2023-03-26T01:23:05.571Z,9.85
2023-03-26T01:28:12.761Z,9.78
2023-03-26T01:33:34.371Z,9.88
2023-03-26T01:38:50.196Z,9.98
2023-03-26T01:44:06.887Z,10.03
2023-03-26T01:49:13.746Z,10.03
2023-03-26T01:54:23.285Z,10.01
2023-03-26T01:59:54.747Z,10.10
2023-03-26T02:05:26.385Z,10.02
2023-03-26T02:10:37.107Z,9.91
2023-03-26T02:15:41.316Z,9.80
2023-03-26T02:20:44.128Z,9.72
2023-03-26T02:25:47.867Z,9.67
2023-03-26T02:30:50.617Z,9.61
2023-03-26T02:35:53.906Z,9.50
2023-03-26T02:40:56.894Z,9.43
2023-03-26T02:46:10.505Z,9.32
2023-03-26T02:51:48.169Z,9.27
2023-03-26T02:57:01.615Z,9.23
2023-03-26T03:02:24.549Z,9.21
2023-03-26T03:07:32.771Z,9.29
2023-03-26T03:12:37.121Z,9.28
2023-03-26T03:17:40.790Z,9.40
2023-03-26T03:22:43.429Z,9.78
2023-03-26T03:27:46.129Z,10.36
2023-03-26T03:32:49.774Z,10.86
2023-03-26T03:38:00.299Z,11.40
2023-03-26T03:43:07.140Z,12.07
2023-03-26T03:48:19.307Z,12.62
2023-03-26T03:53:26.378Z,13.04
2023-03-26T03:58:31.521Z,13.28
2023-03-26T04:03:46.959Z,13.78
2023-03-26T04:08:53.024Z,14.75
2023-03-26T04:13:56.583Z,15.51
2023-03-26T04:19:17.894Z,16.27
2023-03-26T04:24:22.683Z,17.24
2023-03-26T04:29:50.049Z,18.04
2023-03-26T04:35:01.045Z,18.49
2023-03-26T04:40:10.500Z,19.25
2023-03-26T04:45:35.982Z,19.61
2023-03-26T04:50:38.644Z,20.25
2023-03-26T04:56:05.739Z,20.40
2023-03-26T05:01:28.626Z,21.16
2023-03-26T05:06:34.602Z,21.63
2023-03-26T05:11:43.901Z,22.06
2023-03-26T05:16:49.280Z,22.20
2023-03-26T05:21:52.305Z,22.84
2023-03-26T05:26:56.203Z,22.38
2023-03-26T05:32:00.145Z,22.86
2023-03-26T05:37:04.926Z,22.47
2023-03-26T05:42:21.754Z,22.94
2023-03-26T05:47:37.813Z,24.03
2023-03-26T05:52:40.891Z,24.91
2023-03-26T05:58:01.705Z,25.48
2023-03-26T06:03:24.832Z,25.77
2023-03-26T06:09:02.041Z,25.62
2023-03-26T06:14:07.198Z,24.27
2023-03-26T06:19:12.100Z,24.28
2023-03-26T06:24:43.677Z,23.71
2023-03-26T06:30:13.285Z,23.73
2023-03-26T06:35:38.905Z,23.79
2023-03-26T06:40:41.526Z,23.83
2023-03-26T06:45:57.924Z,24.19
2023-03-26T06:51:18.740Z,24.39
2023-03-26T06:56:53.990Z,23.98
2023-03-26T07:01:56.552Z,23.11
2023-03-26T07:07:18.442Z,22.85
2023-03-26T07:12:39.562Z,23.69
2023-03-26T07:18:11.104Z,24.29
2023-03-26T07:23:20.247Z,24.12
2023-03-26T07:29:07.723Z,24.05
2023-03-26T07:35:16.313Z,24.12
2023-03-26T07:41:11.388Z,24.36
2023-03-26T07:46:43.379Z,25.65
2023-03-26T07:51:56.185Z,27.34
2023-03-26T07:57:24.345Z,28.30
2023-03-26T08:02:49.140Z,27.59
2023-03-26T08:08:59.452Z,27.41
2023-03-26T08:14:25.968Z,27.81
2023-03-26T08:19:50.869Z,29.40
2023-03-26T08:25:05.662Z,28.77
2023-03-26T08:30:25.597Z,28.88
2023-03-26T08:35:28.690Z,29.09
2023-03-26T08:40:49.377Z,27.46
2023-03-26T08:46:16.546Z,26.80
2023-03-26T08:51:44.026Z,26.42
2023-03-26T08:56:59.782Z,26.45
2023-03-26T09:02:38.654Z,26.43
2023-03-26T09:08:02.738Z,26.07
2023-03-26T09:13:28.044Z,25.17
2023-03-26T09:18:51.954Z,24.72
2023-03-26T09:24:30.137Z,24.00
2023-03-26T09:29:57.517Z,23.79
2023-03-26T09:35:30.470Z,23.29
2023-03-26T09:41:05.075Z,23.11
2023-03-26T09:46:48.874Z,23.04
2023-03-26T09:51:57.728Z,23.46
2023-03-26T09:57:09.016Z,23.60
2023-03-26T10:02:49.869Z,23.51
2023-03-26T10:08:01.816Z,22.99
2023-03-26T10:13:31.523Z,22.63
2023-03-26T10:18:42.874Z,22.31
2023-03-26T10:23:51.529Z,22.17
2023-03-26T10:29:09.745Z,21.86
2023-03-26T10:34:57.048Z,21.50
2023-03-26T10:40:33.233Z,21.69
2023-03-26T10:45:38.591Z,21.48
2023-03-26T10:50:41.210Z,21.54
2023-03-26T10:55:47.112Z,21.95
2023-03-26T11:01:02.263Z,22.28
2023-03-26T11:06:47.364Z,22.02
2023-03-26T11:11:59.446Z,21.95
2023-03-26T11:17:39.510Z,21.87
2023-03-26T11:23:25.136Z,21.91
2023-03-26T11:29:03.660Z,22.15
2023-03-26T11:34:21.606Z,22.31
2023-03-26T11:39:33.929Z,22.44
2023-03-26T11:44:43.311Z,23.16
2023-03-26T11:49:48.372Z,22.92
2023-03-26T11:54:51.458Z,22.81
2023-03-26T12:00:17.112Z,22.29
2023-03-26T12:05:25.149Z,21.94
2023-03-26T12:10:38.466Z,21.65
2023-03-26T12:15:44.656Z,21.33
2023-03-26T12:20:48.385Z,21.31
2023-03-26T12:26:04.457Z,21.13
2023-03-26T12:31:07.840Z,21.01
2023-03-26T12:36:36.871Z,20.93
2023-03-26T12:44:44.554Z,20.84
2023-03-26T12:47:57.561Z,20.82
2023-03-26T12:52:55.933Z,20.84
2023-03-26T12:58:18.848Z,20.76
2023-03-26T13:03:45.468Z,20.64
2023-03-26T13:08:57.949Z,20.76
2023-03-26T13:14:39.533Z,20.64
2023-03-26T13:20:22.675Z,20.53
2023-03-26T13:25:43.464Z,20.37
2023-03-26T13:31:24.137Z,20.22
2023-03-26T13:36:46.904Z,20.22
2023-03-26T13:41:52.938Z,20.19
2023-03-26T13:47:04.143Z,20.16
2023-03-26T13:52:12.470Z,20.21
2023-03-26T13:57:25.213Z,20.11
2023-03-26T14:02:40.891Z,20.02
2023-03-26T14:08:01.837Z,19.85
2023-03-26T14:13:15.965Z,19.71
2023-03-26T14:18:46.158Z,19.60
2023-03-26T14:24:03.861Z,19.46
2023-03-26T14:29:29.083Z,19.33
2023-03-26T14:34:58.825Z,19.19
2023-03-26T14:40:17.306Z,19.09
2023-03-26T14:45:44.377Z,19.03
2023-03-26T14:50:47.008Z,18.93
2023-03-26T14:56:15.769Z,18.85
2023-03-26T15:01:47.516Z,18.76
2023-03-26T15:06:50.219Z,18.66
2023-03-26T15:12:18.624Z,18.54
2023-03-26T15:17:57.853Z,18.49
2023-03-26T15:23:28.755Z,18.37
2023-03-26T15:28:55.861Z,18.27
2023-03-26T15:34:01.270Z,18.16
2023-03-26T15:39:59.910Z,18.05
2023-03-26T15:45:56.581Z,17.89
2023-03-26T15:51:47.051Z,17.77
2023-03-26T15:57:22.902Z,17.62
2023-03-26T16:02:50.551Z,17.47
2023-03-26T16:08:07.936Z,17.34
2023-03-26T16:13:40.956Z,17.24
2023-03-26T16:18:45.593Z,17.14
2023-03-26T16:23:49.351Z,17.00
2023-03-26T16:28:55.251Z,16.80
2023-03-26T16:34:10.942Z,16.64
2023-03-26T16:39:49.562Z,16.57
2023-03-26T16:45:01.028Z,16.48
2023-03-26T16:50:18.998Z,16.42
2023-03-26T16:55:31.214Z,16.36
2023-03-26T17:00:39.692Z,16.42
2023-03-26T17:05:57.228Z,16.43
2023-03-26T17:11:23.653Z,16.41
2023-03-26T17:16:34.600Z,16.37
2023-03-26T17:21:56.111Z,16.31
2023-03-26T17:27:36.189Z,16.17
2023-03-26T17:33:03.767Z,16.01
2023-03-26T17:38:18.543Z,15.87
2023-03-26T17:43:57.699Z,15.69
2023-03-26T17:49:16.880Z,15.55
2023-03-26T17:54:34.021Z,15.44
2023-03-26T17:59:39.194Z,15.39
2023-03-26T18:04:45.956Z,15.32
2023-03-26T18:10:10.832Z,15.32
2023-03-26T18:15:58.916Z,15.27
2023-03-26T18:21:07.427Z,15.26
2023-03-26T18:26:23.245Z,15.25
2023-03-26T18:31:27.142Z,15.24
2023-03-26T18:36:31.729Z,15.24
2023-03-26T18:41:41.968Z,15.27
2023-03-26T18:46:46.117Z,15.21
2023-03-26T18:51:56.798Z,15.13
2023-03-26T18:57:15.056Z,15.02
2023-03-26T19:02:20.031Z,14.94
2023-03-26T19:07:26.743Z,14.82
2023-03-26T19:12:36.873Z,14.77
2023-03-26T19:17:46.118Z,14.64
2023-03-26T19:22:49.656Z,14.66
2023-03-26T19:27:52.780Z,14.66
2023-03-26T19:32:56.153Z,14.65
2023-03-26T19:38:44.855Z,14.61
2023-03-26T19:43:52.867Z,14.48
2023-03-26T19:48:59.247Z,14.44
2023-03-26T19:54:04.906Z,14.42
2023-03-26T19:59:07.894Z,14.33
2023-03-26T20:04:12.543Z,14.31
2023-03-26T20:09:16.532Z,14.20
2023-03-26T20:14:26.409Z,14.12
2023-03-26T20:19:29.872Z,13.93
2023-03-26T20:24:33.828Z,13.71
2023-03-26T20:29:36.974Z,13.55
2023-03-26T20:34:40.201Z,13.39
2023-03-26T20:39:43.097Z,13.24
2023-03-26T20:44:45.719Z,13.14
2023-03-26T20:49:48.206Z,13.05
2023-03-26T20:54:50.759Z,12.97
2023-03-26T20:59:55.893Z,12.82
2023-03-26T21:04:58.603Z,12.73
2023-03-26T21:10:02.234Z,12.65
2023-03-26T21:15:13.358Z,12.47
2023-03-26T21:20:20.109Z,12.39
2023-03-26T21:25:37.004Z,12.27
2023-03-26T21:30:40.130Z,12.14
2023-03-26T21:35:42.883Z,12.03
2023-03-26T21:40:52.923Z,11.94
2023-03-26T21:46:01.386Z,11.85
2023-03-26T21:51:05.688Z,11.92
2023-03-26T21:56:50.715Z,11.95
2023-03-26T22:02:00.700Z,11.97
2023-03-26T22:07:30.897Z,11.97
2023-03-26T22:12:33.458Z,11.97
2023-03-26T22:17:36.130Z,12.03
2023-03-26T22:22:49.240Z,12.08
2023-03-26T22:27:52.933Z,11.88
2023-03-26T22:32:55.914Z,11.73
2023-03-26T22:38:01.474Z,11.68
2023-03-26T22:43:04.842Z,11.63
2023-03-26T22:48:07.581Z,11.67
2023-03-26T22:53:10.210Z,11.65
2023-03-26T22:58:14.019Z,11.55
2023-03-26T23:03:16.560Z,11.49
2023-03-26T23:08:19.054Z,11.39
2023-03-26T23:13:22.360Z,11.30
2023-03-26T23:18:25.129Z,11.20
2023-03-26T23:23:30.177Z,11.19
2023-03-26T23:28:34.067Z,11.17
2023-03-26T23:33:38.755Z,11.15
2023-03-26T23:38:43.922Z,11.08
2023-03-26T23:43:54.153Z,10.97
2023-03-26T23:49:00.220Z,10.96
2023-03-26T23:54:03.069Z,10.92
2023-03-26T23:59:06.352Z,10.91
